Pagina principale
METAR-TAF:

METAR-TAF

Aeroporti :

Mannheim, Germania

latitudine: 49-28-21N, longitudine: 008-30-56E, altezza: 100 m

Osservazione

Il bollettino è stato emesso 32 minuti fa, alle 05:50 UTC
Vento 7 kt da sud, variando fra sud/sud-est e sud-ovest
Temperature 5°C
Umidità 87%
Pressione 1006 hPa
Visibilità 10 km o più
Cielo coperto ad un'altezza di 700 ft

METAR: EDFM 180550Z 18007KT 150V220 9999 OVC007 05/03 Q1006

Ora: 07:22 (06:22 UTC)

Previsione

Il bollettino è stato emesso 1 ora e 22 minuti fa, alle 05:00 UTC
Previsione valida dal 18 alle 06 UTC al 18 alle 15 UTC
Vento 7 kt da sud
Visibilità 10 km o più
Nuvoloso ad un'altezza di 700 ft
Evoluzione graduale
dal 18 alle 06 UTC al 18 alle 09 UTC
Nubi sparse ad un'altezza di 700 ft
Nuvoloso ad un'altezza di 2500 ft

TAF: EDFM 180500Z 1806/1815 18007KT 9999 BKN007 BECMG 1806/1809 SCT007 BKN025

Osservazioni e previsioni meteorologiche di più di 4000 aeroporti (messaggi METAR e TAF).

Le stazioni disponibili sono rappresentate dai dischi gialli e rossi sulla carta.

Puntare il mouse per vedere il nome della stazione.

Clicca sopra per visualizzare le osservazioni e previsioni meteorologiche.

Per cambiare la mappa : fare clic sui pulsanti verdi con una croce nera per ingrandire, il pulsante verde con un trattino per diminuire, o sulla freccia verde per le mappe adiacenti.


METAR-TAF: